sensor_id;sensor_type;location;lat;lon;timestamp;P1;durP1;ratioP1;P2;durP2;ratioP2
18875;SDS011;9570;50.854;13.778;2022-12-07T00:00:48;11.57;;;8.73;;
18875;SDS011;9570;50.854;13.778;2022-12-07T00:03:14;9.73;;;7.93;;
18875;SDS011;9570;50.854;13.778;2022-12-07T00:05:39;10.10;;;8.10;;
18875;SDS011;9570;50.854;13.778;2022-12-07T00:08:05;10.93;;;8.47;;
18875;SDS011;9570;50.854;13.778;2022-12-07T00:10:32;9.63;;;7.73;;
18875;SDS011;9570;50.854;13.778;2022-12-07T00:12:58;11.63;;;8.83;;
18875;SDS011;9570;50.854;13.778;2022-12-07T00:15:24;10.50;;;7.70;;
18875;SDS011;9570;50.854;13.778;2022-12-07T00:17:50;10.43;;;8.37;;
18875;SDS011;9570;50.854;13.778;2022-12-07T00:20:15;11.27;;;8.23;;
18875;SDS011;9570;50.854;13.778;2022-12-07T00:22:41;10.00;;;8.10;;
18875;SDS011;9570;50.854;13.778;2022-12-07T00:25:07;10.60;;;8.00;;
18875;SDS011;9570;50.854;13.778;2022-12-07T00:27:32;9.83;;;7.93;;
18875;SDS011;9570;50.854;13.778;2022-12-07T00:29:58;11.20;;;8.43;;
18875;SDS011;9570;50.854;13.778;2022-12-07T00:32:23;11.33;;;7.90;;
18875;SDS011;9570;50.854;13.778;2022-12-07T00:34:49;11.03;;;7.63;;
18875;SDS011;9570;50.854;13.778;2022-12-07T00:37:14;10.93;;;7.40;;
18875;SDS011;9570;50.854;13.778;2022-12-07T00:39:40;11.23;;;7.77;;
18875;SDS011;9570;50.854;13.778;2022-12-07T00:42:05;10.97;;;7.87;;
18875;SDS011;9570;50.854;13.778;2022-12-07T00:44:31;9.57;;;7.23;;
18875;SDS011;9570;50.854;13.778;2022-12-07T00:46:56;11.60;;;7.20;;
18875;SDS011;9570;50.854;13.778;2022-12-07T00:49:22;10.93;;;7.70;;
18875;SDS011;9570;50.854;13.778;2022-12-07T00:51:48;10.30;;;7.70;;
18875;SDS011;9570;50.854;13.778;2022-12-07T00:54:14;11.00;;;7.97;;
18875;SDS011;9570;50.854;13.778;2022-12-07T00:56:39;10.03;;;7.30;;
18875;SDS011;9570;50.854;13.778;2022-12-07T00:59:05;11.70;;;7.97;;
18875;SDS011;9570;50.854;13.778;2022-12-07T01:01:32;11.07;;;7.27;;
18875;SDS011;9570;50.854;13.778;2022-12-07T01:03:59;9.20;;;6.77;;
18875;SDS011;9570;50.854;13.778;2022-12-07T01:06:29;8.57;;;6.90;;
18875;SDS011;9570;50.854;13.778;2022-12-07T01:08:55;8.73;;;6.93;;
18875;SDS011;9570;50.854;13.778;2022-12-07T01:11:22;9.97;;;7.47;;
18875;SDS011;9570;50.854;13.778;2022-12-07T01:13:51;12.23;;;7.17;;
18875;SDS011;9570;50.854;13.778;2022-12-07T01:16:18;11.17;;;7.73;;
18875;SDS011;9570;50.854;13.778;2022-12-07T01:18:48;11.57;;;7.27;;
18875;SDS011;9570;50.854;13.778;2022-12-07T01:21:16;11.07;;;7.27;;
18875;SDS011;9570;50.854;13.778;2022-12-07T01:23:45;11.87;;;7.40;;
18875;SDS011;9570;50.854;13.778;2022-12-07T01:26:13;9.43;;;6.67;;
18875;SDS011;9570;50.854;13.778;2022-12-07T01:28:41;11.50;;;8.07;;
18875;SDS011;9570;50.854;13.778;2022-12-07T01:31:08;10.13;;;7.67;;
18875;SDS011;9570;50.854;13.778;2022-12-07T01:33:42;10.00;;;7.40;;
18875;SDS011;9570;50.854;13.778;2022-12-07T01:36:14;11.17;;;7.40;;
18875;SDS011;9570;50.854;13.778;2022-12-07T01:38:42;10.70;;;7.33;;
18875;SDS011;9570;50.854;13.778;2022-12-07T01:41:08;9.67;;;7.33;;
18875;SDS011;9570;50.854;13.778;2022-12-07T01:43:34;9.73;;;6.97;;
18875;SDS011;9570;50.854;13.778;2022-12-07T01:46:00;9.60;;;6.80;;
18875;SDS011;9570;50.854;13.778;2022-12-07T01:48:28;11.00;;;7.03;;
18875;SDS011;9570;50.854;13.778;2022-12-07T01:50:59;8.70;;;6.70;;
18875;SDS011;9570;50.854;13.778;2022-12-07T01:53:28;9.73;;;6.57;;
18875;SDS011;9570;50.854;13.778;2022-12-07T01:55:55;10.30;;;6.73;;
18875;SDS011;9570;50.854;13.778;2022-12-07T01:58:22;8.47;;;6.40;;
18875;SDS011;9570;50.854;13.778;2022-12-07T02:00:49;9.60;;;7.07;;
18875;SDS011;9570;50.854;13.778;2022-12-07T02:03:16;9.30;;;6.80;;
18875;SDS011;9570;50.854;13.778;2022-12-07T02:05:43;9.00;;;6.30;;
18875;SDS011;9570;50.854;13.778;2022-12-07T02:08:10;10.87;;;6.50;;
18875;SDS011;9570;50.854;13.778;2022-12-07T02:10:37;9.73;;;6.93;;
18875;SDS011;9570;50.854;13.778;2022-12-07T02:18:48;9.63;;;6.53;;
18875;SDS011;9570;50.854;13.778;2022-12-07T02:21:28;9.57;;;6.77;;
18875;SDS011;9570;50.854;13.778;2022-12-07T02:30:00;8.40;;;6.07;;
18875;SDS011;9570;50.854;13.778;2022-12-07T02:32:43;8.67;;;5.73;;
18875;SDS011;9570;50.854;13.778;2022-12-07T02:35:20;8.23;;;5.87;;
18875;SDS011;9570;50.854;13.778;2022-12-07T02:37:56;8.10;;;6.27;;
18875;SDS011;9570;50.854;13.778;2022-12-07T02:40:33;9.33;;;6.63;;
18875;SDS011;9570;50.854;13.778;2022-12-07T02:43:14;8.40;;;6.57;;
18875;SDS011;9570;50.854;13.778;2022-12-07T02:45:44;10.87;;;7.20;;
18875;SDS011;9570;50.854;13.778;2022-12-07T02:48:12;12.23;;;8.20;;
18875;SDS011;9570;50.854;13.778;2022-12-07T02:50:45;9.90;;;7.37;;
18875;SDS011;9570;50.854;13.778;2022-12-07T02:56:12;11.00;;;7.63;;
18875;SDS011;9570;50.854;13.778;2022-12-07T03:02:06;12.03;;;8.33;;
18875;SDS011;9570;50.854;13.778;2022-12-07T03:04:41;13.13;;;8.97;;
18875;SDS011;9570;50.854;13.778;2022-12-07T03:10:14;11.33;;;8.40;;
18875;SDS011;9570;50.854;13.778;2022-12-07T03:13:07;12.73;;;8.60;;
18875;SDS011;9570;50.854;13.778;2022-12-07T03:15:44;11.17;;;8.37;;
18875;SDS011;9570;50.854;13.778;2022-12-07T03:18:15;12.00;;;8.63;;
18875;SDS011;9570;50.854;13.778;2022-12-07T03:20:44;14.37;;;9.10;;
18875;SDS011;9570;50.854;13.778;2022-12-07T03:23:12;11.70;;;8.60;;
18875;SDS011;9570;50.854;13.778;2022-12-07T03:25:43;12.33;;;9.27;;
18875;SDS011;9570;50.854;13.778;2022-12-07T03:28:13;10.73;;;8.20;;
18875;SDS011;9570;50.854;13.778;2022-12-07T03:30:44;12.07;;;8.13;;
18875;SDS011;9570;50.854;13.778;2022-12-07T03:33:17;9.37;;;7.53;;
18875;SDS011;9570;50.854;13.778;2022-12-07T03:35:52;11.30;;;8.40;;
18875;SDS011;9570;50.854;13.778;2022-12-07T03:38:32;11.33;;;8.40;;
18875;SDS011;9570;50.854;13.778;2022-12-07T03:41:09;10.20;;;7.30;;
18875;SDS011;9570;50.854;13.778;2022-12-07T03:43:39;10.07;;;7.20;;
18875;SDS011;9570;50.854;13.778;2022-12-07T03:46:09;11.17;;;7.53;;
18875;SDS011;9570;50.854;13.778;2022-12-07T03:49:11;9.10;;;6.70;;
18875;SDS011;9570;50.854;13.778;2022-12-07T03:54:18;9.40;;;6.73;;
18875;SDS011;9570;50.854;13.778;2022-12-07T03:56:48;9.70;;;6.57;;
18875;SDS011;9570;50.854;13.778;2022-12-07T03:59:15;8.77;;;6.73;;
18875;SDS011;9570;50.854;13.778;2022-12-07T04:01:45;9.47;;;6.83;;
18875;SDS011;9570;50.854;13.778;2022-12-07T04:04:18;8.87;;;6.70;;
18875;SDS011;9570;50.854;13.778;2022-12-07T04:06:43;10.13;;;6.23;;
18875;SDS011;9570;50.854;13.778;2022-12-07T04:09:09;9.20;;;7.13;;
18875;SDS011;9570;50.854;13.778;2022-12-07T04:11:34;9.50;;;7.00;;
18875;SDS011;9570;50.854;13.778;2022-12-07T04:14:00;10.53;;;7.30;;
18875;SDS011;9570;50.854;13.778;2022-12-07T04:16:47;9.43;;;7.33;;
18875;SDS011;9570;50.854;13.778;2022-12-07T04:19:14;9.30;;;7.13;;
18875;SDS011;9570;50.854;13.778;2022-12-07T04:21:41;8.37;;;7.00;;
18875;SDS011;9570;50.854;13.778;2022-12-07T04:24:06;10.17;;;7.10;;
18875;SDS011;9570;50.854;13.778;2022-12-07T04:26:32;9.27;;;6.77;;
18875;SDS011;9570;50.854;13.778;2022-12-07T04:28:57;10.07;;;6.63;;
18875;SDS011;9570;50.854;13.778;2022-12-07T04:31:23;9.20;;;7.03;;
18875;SDS011;9570;50.854;13.778;2022-12-07T04:33:49;9.90;;;7.53;;
18875;SDS011;9570;50.854;13.778;2022-12-07T04:36:14;10.67;;;7.57;;
18875;SDS011;9570;50.854;13.778;2022-12-07T04:38:40;10.20;;;7.57;;
18875;SDS011;9570;50.854;13.778;2022-12-07T04:41:06;9.17;;;6.73;;
18875;SDS011;9570;50.854;13.778;2022-12-07T04:43:32;10.33;;;7.13;;
18875;SDS011;9570;50.854;13.778;2022-12-07T04:45:58;9.50;;;6.37;;
18875;SDS011;9570;50.854;13.778;2022-12-07T04:48:24;9.23;;;7.03;;
18875;SDS011;9570;50.854;13.778;2022-12-07T04:50:49;7.33;;;5.57;;
18875;SDS011;9570;50.854;13.778;2022-12-07T04:53:15;11.37;;;6.90;;
18875;SDS011;9570;50.854;13.778;2022-12-07T04:55:40;9.10;;;6.70;;
18875;SDS011;9570;50.854;13.778;2022-12-07T04:58:06;9.10;;;5.93;;
18875;SDS011;9570;50.854;13.778;2022-12-07T05:00:32;8.53;;;6.50;;
18875;SDS011;9570;50.854;13.778;2022-12-07T05:02:57;7.83;;;6.10;;
18875;SDS011;9570;50.854;13.778;2022-12-07T05:05:23;9.60;;;5.83;;
18875;SDS011;9570;50.854;13.778;2022-12-07T05:07:49;8.67;;;5.67;;
18875;SDS011;9570;50.854;13.778;2022-12-07T05:10:15;6.47;;;5.43;;
18875;SDS011;9570;50.854;13.778;2022-12-07T05:12:41;8.60;;;5.87;;
18875;SDS011;9570;50.854;13.778;2022-12-07T05:15:06;7.40;;;5.43;;
18875;SDS011;9570;50.854;13.778;2022-12-07T05:17:33;6.87;;;5.67;;
18875;SDS011;9570;50.854;13.778;2022-12-07T05:19:58;8.93;;;6.30;;
18875;SDS011;9570;50.854;13.778;2022-12-07T05:22:24;7.90;;;5.57;;
18875;SDS011;9570;50.854;13.778;2022-12-07T05:24:53;7.95;;;4.95;;
18875;SDS011;9570;50.854;13.778;2022-12-07T05:27:18;7.47;;;5.10;;
18875;SDS011;9570;50.854;13.778;2022-12-07T05:29:44;7.47;;;5.73;;
18875;SDS011;9570;50.854;13.778;2022-12-07T05:32:10;7.57;;;5.13;;
18875;SDS011;9570;50.854;13.778;2022-12-07T05:34:35;6.83;;;4.30;;
18875;SDS011;9570;50.854;13.778;2022-12-07T05:37:01;6.23;;;4.97;;
18875;SDS011;9570;50.854;13.778;2022-12-07T05:39:26;6.67;;;5.03;;
18875;SDS011;9570;50.854;13.778;2022-12-07T05:41:52;7.93;;;5.00;;
18875;SDS011;9570;50.854;13.778;2022-12-07T05:44:36;7.17;;;4.67;;
18875;SDS011;9570;50.854;13.778;2022-12-07T05:47:01;7.43;;;5.03;;
18875;SDS011;9570;50.854;13.778;2022-12-07T05:49:27;5.53;;;4.20;;
18875;SDS011;9570;50.854;13.778;2022-12-07T05:51:52;7.33;;;4.40;;
18875;SDS011;9570;50.854;13.778;2022-12-07T05:54:18;6.93;;;4.60;;
18875;SDS011;9570;50.854;13.778;2022-12-07T05:56:43;5.63;;;3.90;;
18875;SDS011;9570;50.854;13.778;2022-12-07T05:59:09;5.40;;;4.10;;
18875;SDS011;9570;50.854;13.778;2022-12-07T06:01:56;6.10;;;4.00;;
18875;SDS011;9570;50.854;13.778;2022-12-07T06:04:34;6.07;;;4.00;;
18875;SDS011;9570;50.854;13.778;2022-12-07T06:07:01;7.05;;;3.50;;
18875;SDS011;9570;50.854;13.778;2022-12-07T06:09:28;4.97;;;3.67;;
18875;SDS011;9570;50.854;13.778;2022-12-07T06:11:54;6.67;;;3.57;;
18875;SDS011;9570;50.854;13.778;2022-12-07T06:14:39;5.30;;;3.87;;
18875;SDS011;9570;50.854;13.778;2022-12-07T06:17:05;3.97;;;3.20;;
18875;SDS011;9570;50.854;13.778;2022-12-07T06:19:30;5.27;;;3.97;;
18875;SDS011;9570;50.854;13.778;2022-12-07T06:21:56;4.97;;;3.60;;
18875;SDS011;9570;50.854;13.778;2022-12-07T06:24:22;5.37;;;3.83;;
18875;SDS011;9570;50.854;13.778;2022-12-07T06:26:48;5.07;;;3.93;;
18875;SDS011;9570;50.854;13.778;2022-12-07T06:29:14;4.83;;;3.47;;
18875;SDS011;9570;50.854;13.778;2022-12-07T06:31:40;4.97;;;4.03;;
18875;SDS011;9570;50.854;13.778;2022-12-07T06:34:07;6.28;;;3.90;;
18875;SDS011;9570;50.854;13.778;2022-12-07T06:36:35;5.17;;;4.50;;
18875;SDS011;9570;50.854;13.778;2022-12-07T06:39:02;6.83;;;4.33;;
18875;SDS011;9570;50.854;13.778;2022-12-07T06:41:28;4.83;;;4.10;;
18875;SDS011;9570;50.854;13.778;2022-12-07T06:43:53;6.00;;;4.30;;
18875;SDS011;9570;50.854;13.778;2022-12-07T06:46:19;5.63;;;3.90;;
18875;SDS011;9570;50.854;13.778;2022-12-07T06:48:44;5.27;;;3.90;;
18875;SDS011;9570;50.854;13.778;2022-12-07T06:51:10;4.53;;;3.60;;
18875;SDS011;9570;50.854;13.778;2022-12-07T06:53:36;3.80;;;3.30;;
18875;SDS011;9570;50.854;13.778;2022-12-07T06:56:02;5.73;;;4.20;;
18875;SDS011;9570;50.854;13.778;2022-12-07T06:58:28;4.80;;;3.40;;
18875;SDS011;9570;50.854;13.778;2022-12-07T07:00:53;4.43;;;3.67;;
18875;SDS011;9570;50.854;13.778;2022-12-07T07:03:19;4.37;;;3.33;;
18875;SDS011;9570;50.854;13.778;2022-12-07T07:05:45;4.77;;;3.57;;
18875;SDS011;9570;50.854;13.778;2022-12-07T07:08:11;4.20;;;3.30;;
18875;SDS011;9570;50.854;13.778;2022-12-07T07:10:37;4.50;;;3.43;;
18875;SDS011;9570;50.854;13.778;2022-12-07T07:13:02;4.10;;;3.47;;
18875;SDS011;9570;50.854;13.778;2022-12-07T07:15:28;4.53;;;3.30;;
18875;SDS011;9570;50.854;13.778;2022-12-07T07:17:54;4.20;;;3.33;;
18875;SDS011;9570;50.854;13.778;2022-12-07T07:20:19;4.00;;;3.33;;
18875;SDS011;9570;50.854;13.778;2022-12-07T07:22:45;3.27;;;2.87;;
18875;SDS011;9570;50.854;13.778;2022-12-07T07:25:10;5.27;;;3.87;;
18875;SDS011;9570;50.854;13.778;2022-12-07T07:27:36;5.10;;;3.57;;
18875;SDS011;9570;50.854;13.778;2022-12-07T07:30:02;3.60;;;3.10;;
18875;SDS011;9570;50.854;13.778;2022-12-07T07:32:28;2.97;;;2.63;;
18875;SDS011;9570;50.854;13.778;2022-12-07T07:34:53;3.07;;;2.50;;
18875;SDS011;9570;50.854;13.778;2022-12-07T07:37:19;2.97;;;2.60;;
18875;SDS011;9570;50.854;13.778;2022-12-07T07:39:44;3.17;;;2.53;;
18875;SDS011;9570;50.854;13.778;2022-12-07T07:42:10;3.23;;;2.60;;
18875;SDS011;9570;50.854;13.778;2022-12-07T07:44:35;2.50;;;2.30;;
18875;SDS011;9570;50.854;13.778;2022-12-07T07:47:01;3.57;;;2.73;;
18875;SDS011;9570;50.854;13.778;2022-12-07T07:49:27;2.77;;;2.23;;
18875;SDS011;9570;50.854;13.778;2022-12-07T07:51:53;2.60;;;2.40;;
18875;SDS011;9570;50.854;13.778;2022-12-07T07:54:18;2.67;;;2.20;;
18875;SDS011;9570;50.854;13.778;2022-12-07T07:56:44;2.43;;;2.23;;
18875;SDS011;9570;50.854;13.778;2022-12-07T07:59:09;2.80;;;2.50;;
18875;SDS011;9570;50.854;13.778;2022-12-07T08:01:35;3.10;;;2.80;;
18875;SDS011;9570;50.854;13.778;2022-12-07T08:04:00;4.20;;;2.63;;
18875;SDS011;9570;50.854;13.778;2022-12-07T08:06:26;3.33;;;2.97;;
18875;SDS011;9570;50.854;13.778;2022-12-07T08:08:51;4.17;;;3.00;;
18875;SDS011;9570;50.854;13.778;2022-12-07T08:11:17;3.30;;;2.97;;
18875;SDS011;9570;50.854;13.778;2022-12-07T08:13:44;3.97;;;3.17;;
18875;SDS011;9570;50.854;13.778;2022-12-07T08:16:11;3.40;;;3.10;;
18875;SDS011;9570;50.854;13.778;2022-12-07T08:18:38;4.50;;;3.70;;
18875;SDS011;9570;50.854;13.778;2022-12-07T08:21:05;4.03;;;3.63;;
18875;SDS011;9570;50.854;13.778;2022-12-07T08:23:31;4.57;;;3.83;;
18875;SDS011;9570;50.854;13.778;2022-12-07T08:26:02;5.87;;;4.33;;
18875;SDS011;9570;50.854;13.778;2022-12-07T08:28:29;5.67;;;4.87;;
18875;SDS011;9570;50.854;13.778;2022-12-07T08:30:59;6.50;;;5.47;;
18875;SDS011;9570;50.854;13.778;2022-12-07T08:33:35;6.83;;;5.33;;
18875;SDS011;9570;50.854;13.778;2022-12-07T08:36:04;7.40;;;5.23;;
18875;SDS011;9570;50.854;13.778;2022-12-07T08:38:33;7.57;;;5.90;;
18875;SDS011;9570;50.854;13.778;2022-12-07T08:41:00;8.60;;;5.30;;
18875;SDS011;9570;50.854;13.778;2022-12-07T08:43:25;6.33;;;5.60;;
18875;SDS011;9570;50.854;13.778;2022-12-07T08:46:03;7.23;;;5.63;;
18875;SDS011;9570;50.854;13.778;2022-12-07T08:48:43;8.23;;;5.67;;
18875;SDS011;9570;50.854;13.778;2022-12-07T08:51:26;7.40;;;5.40;;
18875;SDS011;9570;50.854;13.778;2022-12-07T08:53:52;7.00;;;5.57;;
18875;SDS011;9570;50.854;13.778;2022-12-07T08:56:19;7.20;;;5.20;;
18875;SDS011;9570;50.854;13.778;2022-12-07T08:58:45;6.87;;;5.63;;
18875;SDS011;9570;50.854;13.778;2022-12-07T09:01:10;5.23;;;4.60;;
18875;SDS011;9570;50.854;13.778;2022-12-07T09:03:36;7.03;;;4.63;;
18875;SDS011;9570;50.854;13.778;2022-12-07T09:06:01;7.37;;;5.37;;
18875;SDS011;9570;50.854;13.778;2022-12-07T09:08:34;8.67;;;5.60;;
18875;SDS011;9570;50.854;13.778;2022-12-07T09:11:03;7.57;;;5.10;;
18875;SDS011;9570;50.854;13.778;2022-12-07T09:13:29;7.03;;;4.50;;
18875;SDS011;9570;50.854;13.778;2022-12-07T09:15:54;7.53;;;4.50;;
18875;SDS011;9570;50.854;13.778;2022-12-07T09:18:20;4.90;;;4.40;;
18875;SDS011;9570;50.854;13.778;2022-12-07T09:20:46;5.17;;;4.13;;
18875;SDS011;9570;50.854;13.778;2022-12-07T09:23:11;6.00;;;4.37;;
18875;SDS011;9570;50.854;13.778;2022-12-07T09:25:37;5.27;;;4.10;;
18875;SDS011;9570;50.854;13.778;2022-12-07T09:28:02;7.07;;;4.43;;
18875;SDS011;9570;50.854;13.778;2022-12-07T09:30:28;4.30;;;3.67;;
18875;SDS011;9570;50.854;13.778;2022-12-07T09:32:54;6.63;;;4.30;;
18875;SDS011;9570;50.854;13.778;2022-12-07T09:35:21;5.90;;;3.80;;
18875;SDS011;9570;50.854;13.778;2022-12-07T09:37:47;6.50;;;4.30;;
18875;SDS011;9570;50.854;13.778;2022-12-07T09:40:13;5.57;;;4.00;;
18875;SDS011;9570;50.854;13.778;2022-12-07T09:42:39;6.70;;;3.90;;
18875;SDS011;9570;50.854;13.778;2022-12-07T09:45:31;8.07;;;3.57;;
18875;SDS011;9570;50.854;13.778;2022-12-07T09:48:00;6.20;;;4.10;;
18875;SDS011;9570;50.854;13.778;2022-12-07T09:50:28;6.83;;;4.13;;
18875;SDS011;9570;50.854;13.778;2022-12-07T09:52:56;6.00;;;3.93;;
18875;SDS011;9570;50.854;13.778;2022-12-07T09:55:33;6.13;;;4.00;;
18875;SDS011;9570;50.854;13.778;2022-12-07T09:58:00;6.63;;;3.70;;
18875;SDS011;9570;50.854;13.778;2022-12-07T10:00:25;7.40;;;3.83;;
18875;SDS011;9570;50.854;13.778;2022-12-07T10:02:55;5.70;;;3.40;;
18875;SDS011;9570;50.854;13.778;2022-12-07T10:05:35;7.00;;;3.43;;
18875;SDS011;9570;50.854;13.778;2022-12-07T10:08:08;4.93;;;3.47;;
18875;SDS011;9570;50.854;13.778;2022-12-07T10:10:38;4.63;;;3.40;;
18875;SDS011;9570;50.854;13.778;2022-12-07T10:13:11;5.47;;;3.43;;
18875;SDS011;9570;50.854;13.778;2022-12-07T10:18:18;5.43;;;3.50;;
18875;SDS011;9570;50.854;13.778;2022-12-07T10:21:11;7.07;;;3.70;;
18875;SDS011;9570;50.854;13.778;2022-12-07T10:24:01;7.23;;;3.50;;
18875;SDS011;9570;50.854;13.778;2022-12-07T10:26:50;7.60;;;3.63;;
18875;SDS011;9570;50.854;13.778;2022-12-07T10:31:42;6.50;;;3.50;;
18875;SDS011;9570;50.854;13.778;2022-12-07T10:34:43;6.30;;;4.27;;
18875;SDS011;9570;50.854;13.778;2022-12-07T10:40:01;3.93;;;3.57;;
18875;SDS011;9570;50.854;13.778;2022-12-07T10:42:30;7.13;;;3.40;;
18875;SDS011;9570;50.854;13.778;2022-12-07T10:47:47;4.23;;;3.23;;
18875;SDS011;9570;50.854;13.778;2022-12-07T10:56:42;5.87;;;3.20;;
18875;SDS011;9570;50.854;13.778;2022-12-07T11:02:16;5.43;;;3.20;;
18875;SDS011;9570;50.854;13.778;2022-12-07T11:07:58;8.50;;;3.60;;
18875;SDS011;9570;50.854;13.778;2022-12-07T11:10:54;4.73;;;3.07;;
18875;SDS011;9570;50.854;13.778;2022-12-07T11:13:27;8.73;;;3.57;;
18875;SDS011;9570;50.854;13.778;2022-12-07T11:16:24;6.03;;;3.53;;
18875;SDS011;9570;50.854;13.778;2022-12-07T11:19:39;4.53;;;3.10;;
18875;SDS011;9570;50.854;13.778;2022-12-07T11:22:30;5.67;;;3.30;;
18875;SDS011;9570;50.854;13.778;2022-12-07T11:25:21;6.00;;;3.17;;
18875;SDS011;9570;50.854;13.778;2022-12-07T11:30:48;6.83;;;3.50;;
18875;SDS011;9570;50.854;13.778;2022-12-07T11:33:37;5.23;;;3.00;;
18875;SDS011;9570;50.854;13.778;2022-12-07T11:39:06;6.00;;;3.60;;
18875;SDS011;9570;50.854;13.778;2022-12-07T11:41:55;5.17;;;3.17;;
18875;SDS011;9570;50.854;13.778;2022-12-07T11:44:31;6.40;;;3.40;;
18875;SDS011;9570;50.854;13.778;2022-12-07T11:50:40;7.50;;;3.90;;
18875;SDS011;9570;50.854;13.778;2022-12-07T11:53:31;5.30;;;3.43;;
18875;SDS011;9570;50.854;13.778;2022-12-07T11:56:16;7.33;;;3.93;;
18875;SDS011;9570;50.854;13.778;2022-12-07T12:06:31;6.90;;;3.70;;
18875;SDS011;9570;50.854;13.778;2022-12-07T12:09:00;6.20;;;3.90;;
18875;SDS011;9570;50.854;13.778;2022-12-07T12:11:52;5.87;;;3.93;;
18875;SDS011;9570;50.854;13.778;2022-12-07T12:22:55;4.77;;;3.30;;
18875;SDS011;9570;50.854;13.778;2022-12-07T12:25:48;4.70;;;3.27;;
18875;SDS011;9570;50.854;13.778;2022-12-07T12:28:18;6.57;;;3.40;;
18875;SDS011;9570;50.854;13.778;2022-12-07T12:33:50;4.53;;;3.03;;
18875;SDS011;9570;50.854;13.778;2022-12-07T12:44:38;7.17;;;3.50;;
18875;SDS011;9570;50.854;13.778;2022-12-07T12:47:00;4.27;;;3.13;;
18875;SDS011;9570;50.854;13.778;2022-12-07T12:57:38;3.20;;;2.67;;
18875;SDS011;9570;50.854;13.778;2022-12-07T13:00:20;6.53;;;3.30;;
18875;SDS011;9570;50.854;13.778;2022-12-07T13:02:48;4.70;;;2.87;;
18875;SDS011;9570;50.854;13.778;2022-12-07T13:05:20;3.83;;;2.70;;
18875;SDS011;9570;50.854;13.778;2022-12-07T13:20:56;3.37;;;2.70;;
18875;SDS011;9570;50.854;13.778;2022-12-07T13:24:08;4.27;;;2.97;;
18875;SDS011;9570;50.854;13.778;2022-12-07T13:39:45;5.77;;;3.33;;
18875;SDS011;9570;50.854;13.778;2022-12-07T13:42:24;5.43;;;3.17;;
18875;SDS011;9570;50.854;13.778;2022-12-07T13:44:54;5.07;;;3.10;;
18875;SDS011;9570;50.854;13.778;2022-12-07T13:52:54;4.33;;;2.80;;
18875;SDS011;9570;50.854;13.778;2022-12-07T13:55:23;3.93;;;3.17;;
18875;SDS011;9570;50.854;13.778;2022-12-07T13:57:50;5.03;;;3.10;;
18875;SDS011;9570;50.854;13.778;2022-12-07T14:00:19;4.57;;;2.83;;
18875;SDS011;9570;50.854;13.778;2022-12-07T14:05:26;3.63;;;3.07;;
18875;SDS011;9570;50.854;13.778;2022-12-07T14:07:57;5.50;;;3.70;;
18875;SDS011;9570;50.854;13.778;2022-12-07T14:15:55;3.13;;;2.60;;
18875;SDS011;9570;50.854;13.778;2022-12-07T14:18:30;3.33;;;2.70;;
18875;SDS011;9570;50.854;13.778;2022-12-07T14:21:22;3.37;;;2.37;;
18875;SDS011;9570;50.854;13.778;2022-12-07T14:26:45;3.57;;;2.83;;
18875;SDS011;9570;50.854;13.778;2022-12-07T14:29:19;2.87;;;2.10;;
18875;SDS011;9570;50.854;13.778;2022-12-07T14:31:45;4.43;;;2.50;;
18875;SDS011;9570;50.854;13.778;2022-12-07T14:34:13;3.83;;;2.47;;
18875;SDS011;9570;50.854;13.778;2022-12-07T14:36:39;4.73;;;2.80;;
18875;SDS011;9570;50.854;13.778;2022-12-07T14:39:05;4.20;;;2.70;;
18875;SDS011;9570;50.854;13.778;2022-12-07T14:41:30;3.00;;;2.53;;
18875;SDS011;9570;50.854;13.778;2022-12-07T14:44:14;4.00;;;2.77;;
18875;SDS011;9570;50.854;13.778;2022-12-07T14:46:40;5.23;;;2.70;;
18875;SDS011;9570;50.854;13.778;2022-12-07T14:49:05;5.33;;;2.43;;
18875;SDS011;9570;50.854;13.778;2022-12-07T14:51:31;4.13;;;2.40;;
18875;SDS011;9570;50.854;13.778;2022-12-07T14:53:57;4.10;;;3.13;;
18875;SDS011;9570;50.854;13.778;2022-12-07T14:56:23;5.47;;;3.27;;
18875;SDS011;9570;50.854;13.778;2022-12-07T14:58:50;4.97;;;3.17;;
18875;SDS011;9570;50.854;13.778;2022-12-07T15:01:15;3.47;;;2.73;;
18875;SDS011;9570;50.854;13.778;2022-12-07T15:03:41;3.00;;;2.70;;
18875;SDS011;9570;50.854;13.778;2022-12-07T15:06:07;5.40;;;3.37;;
18875;SDS011;9570;50.854;13.778;2022-12-07T15:08:32;4.10;;;2.87;;
18875;SDS011;9570;50.854;13.778;2022-12-07T15:10:58;5.57;;;3.30;;
18875;SDS011;9570;50.854;13.778;2022-12-07T15:13:24;5.80;;;2.77;;
18875;SDS011;9570;50.854;13.778;2022-12-07T15:16:10;4.33;;;2.77;;
18875;SDS011;9570;50.854;13.778;2022-12-07T15:18:37;4.07;;;2.83;;
18875;SDS011;9570;50.854;13.778;2022-12-07T15:21:03;6.40;;;3.40;;
18875;SDS011;9570;50.854;13.778;2022-12-07T15:23:29;5.27;;;3.27;;
18875;SDS011;9570;50.854;13.778;2022-12-07T15:25:56;5.77;;;3.53;;
18875;SDS011;9570;50.854;13.778;2022-12-07T15:28:21;6.93;;;3.63;;
18875;SDS011;9570;50.854;13.778;2022-12-07T15:30:47;4.57;;;3.30;;
18875;SDS011;9570;50.854;13.778;2022-12-07T15:33:13;4.80;;;3.40;;
18875;SDS011;9570;50.854;13.778;2022-12-07T15:35:39;5.53;;;3.97;;
18875;SDS011;9570;50.854;13.778;2022-12-07T15:38:05;8.00;;;3.73;;
18875;SDS011;9570;50.854;13.778;2022-12-07T15:40:31;7.87;;;4.03;;
18875;SDS011;9570;50.854;13.778;2022-12-07T15:42:56;5.43;;;4.03;;
18875;SDS011;9570;50.854;13.778;2022-12-07T15:45:22;7.03;;;3.90;;
18875;SDS011;9570;50.854;13.778;2022-12-07T15:47:47;6.50;;;4.10;;
18875;SDS011;9570;50.854;13.778;2022-12-07T15:50:14;6.97;;;3.97;;
18875;SDS011;9570;50.854;13.778;2022-12-07T15:52:41;6.67;;;4.03;;
18875;SDS011;9570;50.854;13.778;2022-12-07T15:55:07;7.27;;;4.20;;
18875;SDS011;9570;50.854;13.778;2022-12-07T15:57:36;4.73;;;3.30;;
18875;SDS011;9570;50.854;13.778;2022-12-07T16:00:03;4.03;;;3.23;;
18875;SDS011;9570;50.854;13.778;2022-12-07T16:02:30;4.97;;;3.30;;
18875;SDS011;9570;50.854;13.778;2022-12-07T16:04:55;3.03;;;2.70;;
18875;SDS011;9570;50.854;13.778;2022-12-07T16:07:21;5.47;;;2.90;;
18875;SDS011;9570;50.854;13.778;2022-12-07T16:09:47;3.27;;;2.60;;
18875;SDS011;9570;50.854;13.778;2022-12-07T16:12:14;4.20;;;2.70;;
18875;SDS011;9570;50.854;13.778;2022-12-07T16:14:40;5.67;;;3.03;;
18875;SDS011;9570;50.854;13.778;2022-12-07T16:17:07;5.80;;;2.70;;
18875;SDS011;9570;50.854;13.778;2022-12-07T16:19:33;5.27;;;3.20;;
18875;SDS011;9570;50.854;13.778;2022-12-07T16:22:00;4.37;;;3.30;;
18875;SDS011;9570;50.854;13.778;2022-12-07T16:24:26;5.57;;;3.40;;
18875;SDS011;9570;50.854;13.778;2022-12-07T16:26:52;4.20;;;3.20;;
18875;SDS011;9570;50.854;13.778;2022-12-07T16:29:18;5.67;;;2.87;;
18875;SDS011;9570;50.854;13.778;2022-12-07T16:31:45;7.87;;;3.43;;
18875;SDS011;9570;50.854;13.778;2022-12-07T16:34:11;5.07;;;3.27;;
18875;SDS011;9570;50.854;13.778;2022-12-07T16:36:37;4.33;;;3.00;;
18875;SDS011;9570;50.854;13.778;2022-12-07T16:39:02;5.37;;;2.77;;
18875;SDS011;9570;50.854;13.778;2022-12-07T16:41:29;5.10;;;3.03;;
18875;SDS011;9570;50.854;13.778;2022-12-07T16:43:54;7.27;;;3.17;;
18875;SDS011;9570;50.854;13.778;2022-12-07T16:46:20;5.37;;;3.10;;
18875;SDS011;9570;50.854;13.778;2022-12-07T16:48:45;4.33;;;2.90;;
18875;SDS011;9570;50.854;13.778;2022-12-07T16:51:12;4.07;;;2.83;;
18875;SDS011;9570;50.854;13.778;2022-12-07T16:53:39;3.93;;;3.13;;
18875;SDS011;9570;50.854;13.778;2022-12-07T16:56:10;4.67;;;2.80;;
18875;SDS011;9570;50.854;13.778;2022-12-07T16:58:37;3.93;;;2.80;;
18875;SDS011;9570;50.854;13.778;2022-12-07T17:01:13;4.83;;;3.53;;
18875;SDS011;9570;50.854;13.778;2022-12-07T17:03:41;5.10;;;2.80;;
18875;SDS011;9570;50.854;13.778;2022-12-07T17:06:11;4.70;;;3.33;;
18875;SDS011;9570;50.854;13.778;2022-12-07T17:08:38;4.87;;;2.90;;
18875;SDS011;9570;50.854;13.778;2022-12-07T17:11:08;3.50;;;2.70;;
18875;SDS011;9570;50.854;13.778;2022-12-07T17:13:41;4.07;;;2.97;;